EGPM - Scatsa Shetland Island
Distance from station: E 5mi, 14km
Updated: 07/20/2018 4:50pm
Overcast
Overcast
 Wind from SSW
Wind: SSW 6 mph , 9 km/h
Temperature: 55°F , 13°C
Dew Point: 54°F , 12°C
Humidity: 94%
Barometer: 29.83 inHg , 1010 hPa
Clouds: Overcast
Visibility: 6 miles , 10 km
Cloud details: Mostly Cloudy 300 ft
Overcast 1700 ft
2018/07/20 23:50 EGPM 202350Z AUTO 21005KT 9999 BKN003/// OVC017/// 13/12 Q1010